createdAt,value
2023-08-09T00:01:57.881Z,5.30
2023-08-09T00:04:24.365Z,4.70
2023-08-09T00:06:51.069Z,4.50
2023-08-09T00:09:17.815Z,5.10
2023-08-09T00:11:44.329Z,4.40
2023-08-09T00:14:11.005Z,4.90
2023-08-09T00:16:37.510Z,4.20
2023-08-09T00:19:04.325Z,4.40
2023-08-09T00:21:32.132Z,3.80
2023-08-09T00:23:59.234Z,4.80
2023-08-09T00:26:26.306Z,4.30
2023-08-09T00:28:53.348Z,4.60
2023-08-09T00:31:20.148Z,4.20
2023-08-09T00:33:46.740Z,4.70
2023-08-09T00:36:13.325Z,4.90
2023-08-09T00:38:40.313Z,5.40
2023-08-09T00:41:07.004Z,4.80
2023-08-09T00:43:33.553Z,3.70
2023-08-09T00:46:00.261Z,4.70
2023-08-09T00:48:26.968Z,5.60
2023-08-09T00:50:53.950Z,5.10
2023-08-09T00:53:21.746Z,4.80
2023-08-09T00:55:48.258Z,4.40
2023-08-09T00:58:16.761Z,5.00
2023-08-09T01:00:43.427Z,4.50
2023-08-09T01:03:10.190Z,5.00
2023-08-09T01:05:46.973Z,4.80
2023-08-09T01:08:18.615Z,5.60
2023-08-09T01:11:09.917Z,4.50
2023-08-09T01:13:37.807Z,4.90
2023-08-09T01:16:06.040Z,4.50
2023-08-09T01:18:32.738Z,4.20
2023-08-09T01:21:01.101Z,4.90
2023-08-09T01:23:37.249Z,4.30
2023-08-09T01:26:07.526Z,4.70
2023-08-09T01:28:34.040Z,4.60
2023-08-09T01:31:00.817Z,5.00
2023-08-09T01:33:27.684Z,5.20
2023-08-09T01:35:56.182Z,4.80
2023-08-09T01:38:24.922Z,5.10
2023-08-09T01:40:51.388Z,5.20
2023-08-09T01:43:17.886Z,5.20
2023-08-09T01:45:44.501Z,4.80
2023-08-09T01:48:12.734Z,4.80
2023-08-09T01:50:41.207Z,5.10
2023-08-09T01:53:07.770Z,4.00
2023-08-09T01:55:34.486Z,5.00
2023-08-09T01:58:01.052Z,4.50
2023-08-09T02:00:28.357Z,4.80
2023-08-09T02:02:55.541Z,4.60
2023-08-09T02:05:22.983Z,5.00
2023-08-09T02:07:50.921Z,4.90
2023-08-09T02:10:17.604Z,5.30
2023-08-09T02:12:47.996Z,5.80
2023-08-09T02:15:19.844Z,5.50
2023-08-09T02:17:46.772Z,5.20
2023-08-09T02:20:13.547Z,4.90
2023-08-09T02:22:40.277Z,5.10
2023-08-09T02:25:07.936Z,6.00
2023-08-09T02:27:34.967Z,5.80
2023-08-09T02:30:03.991Z,5.40
2023-08-09T02:32:37.273Z,5.90
2023-08-09T02:35:04.806Z,4.70
2023-08-09T02:37:31.666Z,5.80
2023-08-09T02:39:58.926Z,5.40
2023-08-09T02:42:25.608Z,5.50
2023-08-09T02:44:52.225Z,5.30
2023-08-09T02:47:18.907Z,5.00
2023-08-09T02:49:45.488Z,5.20
2023-08-09T02:52:11.981Z,5.40
2023-08-09T02:54:39.718Z,5.80
2023-08-09T02:57:07.641Z,5.50
2023-08-09T02:59:35.218Z,5.70
2023-08-09T03:02:01.906Z,6.20
2023-08-09T03:04:28.663Z,5.90
2023-08-09T03:06:55.250Z,6.60
2023-08-09T03:09:21.890Z,6.80
2023-08-09T03:11:48.780Z,6.90
2023-08-09T03:14:15.528Z,6.40
2023-08-09T03:16:42.114Z,6.20
2023-08-09T03:19:09.182Z,7.60
2023-08-09T03:21:36.940Z,6.30
2023-08-09T03:24:04.840Z,7.70
2023-08-09T03:26:31.510Z,7.00
2023-08-09T03:28:59.711Z,6.40
2023-08-09T03:31:26.628Z,6.20
2023-08-09T03:33:53.967Z,6.20
2023-08-09T03:36:20.844Z,6.90
2023-08-09T03:38:48.745Z,7.00
2023-08-09T03:41:15.644Z,6.60
2023-08-09T03:43:42.270Z,6.50
2023-08-09T03:46:08.952Z,6.50
2023-08-09T03:48:35.693Z,6.90
2023-08-09T03:51:02.458Z,6.10
2023-08-09T03:53:29.036Z,8.10
2023-08-09T03:55:55.787Z,6.90
2023-08-09T03:58:22.339Z,7.50
2023-08-09T04:00:49.160Z,7.30
2023-08-09T04:03:17.758Z,7.00
2023-08-09T04:05:44.943Z,7.20
2023-08-09T04:08:11.465Z,7.50
2023-08-09T04:10:38.670Z,6.60
2023-08-09T04:13:05.211Z,6.50
2023-08-09T04:15:31.791Z,6.80
2023-08-09T04:17:59.542Z,6.30
2023-08-09T04:20:28.291Z,6.20
2023-08-09T04:22:56.726Z,6.40
2023-08-09T04:25:23.293Z,6.40
2023-08-09T04:27:49.995Z,5.60
2023-08-09T04:30:20.789Z,5.60
2023-08-09T04:32:47.312Z,5.40
2023-08-09T04:35:14.138Z,4.80
2023-08-09T04:37:41.090Z,5.30
2023-08-09T04:40:11.489Z,5.20
2023-08-09T04:42:41.956Z,4.60
2023-08-09T04:45:12.818Z,4.90
2023-08-09T04:47:39.866Z,4.80
2023-08-09T04:50:07.953Z,4.70
2023-08-09T04:52:35.402Z,4.70
2023-08-09T04:55:03.472Z,5.10
2023-08-09T04:57:35.243Z,5.00
2023-08-09T05:00:08.918Z,4.60
2023-08-09T05:02:37.424Z,4.60
2023-08-09T05:05:05.197Z,4.10
2023-08-09T05:07:31.930Z,4.20
2023-08-09T05:10:00.001Z,4.20
2023-08-09T05:12:26.678Z,3.80
2023-08-09T05:14:53.271Z,3.20
2023-08-09T05:17:19.881Z,3.70
2023-08-09T05:19:46.537Z,2.90
2023-08-09T05:22:13.063Z,3.00
2023-08-09T05:24:40.528Z,3.00
2023-08-09T05:27:07.409Z,2.70
2023-08-09T05:29:34.172Z,2.60
2023-08-09T05:32:00.948Z,3.20
2023-08-09T05:34:27.683Z,2.90
2023-08-09T05:36:54.331Z,3.10
2023-08-09T05:39:21.082Z,3.30
2023-08-09T05:41:47.673Z,3.30
2023-08-09T05:44:14.326Z,3.80
2023-08-09T05:46:41.082Z,3.50
2023-08-09T05:49:07.659Z,3.20
2023-08-09T05:51:34.107Z,3.00
2023-08-09T05:54:00.857Z,3.10
2023-08-09T05:56:27.422Z,3.10
2023-08-09T05:58:53.923Z,2.40
2023-08-09T06:01:21.726Z,2.10
2023-08-09T06:03:48.444Z,2.40
2023-08-09T06:06:15.067Z,2.50
2023-08-09T06:08:41.601Z,2.40
2023-08-09T06:11:08.247Z,2.20
2023-08-09T06:13:35.349Z,2.00
2023-08-09T06:16:01.986Z,2.30
2023-08-09T06:18:29.000Z,2.30
2023-08-09T06:20:55.846Z,1.90
2023-08-09T06:23:22.590Z,2.50
2023-08-09T06:25:50.396Z,2.40
2023-08-09T06:28:17.836Z,3.10
2023-08-09T06:30:44.692Z,2.00
2023-08-09T06:33:11.462Z,2.50
2023-08-09T06:35:38.000Z,2.40
2023-08-09T06:38:14.588Z,2.20
2023-08-09T06:40:42.722Z,3.10
2023-08-09T06:43:09.513Z,2.40
2023-08-09T06:45:38.748Z,2.40
2023-08-09T06:48:06.044Z,2.50
2023-08-09T06:50:33.151Z,2.70
2023-08-09T06:52:59.710Z,2.50
2023-08-09T06:55:26.480Z,2.50
2023-08-09T06:57:53.140Z,2.60
2023-08-09T07:00:19.850Z,2.20
2023-08-09T07:02:49.067Z,2.60
2023-08-09T07:05:19.440Z,2.80
2023-08-09T07:07:46.389Z,2.80
2023-08-09T07:10:13.275Z,2.30
2023-08-09T07:12:40.301Z,2.00
2023-08-09T07:15:09.334Z,2.40
2023-08-09T07:17:36.433Z,2.70
2023-08-09T07:20:07.679Z,2.60
2023-08-09T07:22:36.269Z,2.30
2023-08-09T07:25:02.929Z,2.20
2023-08-09T07:27:29.837Z,2.10
2023-08-09T07:29:56.404Z,2.20
2023-08-09T07:32:23.174Z,1.80
2023-08-09T07:34:50.058Z,6.50
2023-08-09T07:37:16.785Z,2.90
2023-08-09T07:39:46.510Z,1.80
2023-08-09T07:42:13.190Z,1.90
2023-08-09T07:44:40.041Z,2.20
2023-08-09T07:47:06.727Z,2.00
2023-08-09T07:49:33.330Z,2.30
2023-08-09T07:51:59.976Z,2.30
2023-08-09T07:54:27.020Z,3.90
2023-08-09T07:56:56.849Z,2.20
2023-08-09T07:59:23.456Z,3.20
2023-08-09T08:01:50.048Z,2.60
2023-08-09T08:04:16.677Z,4.50
2023-08-09T08:06:43.407Z,2.10
2023-08-09T08:09:13.220Z,2.20
2023-08-09T08:11:40.755Z,4.20
2023-08-09T08:14:08.586Z,2.20
2023-08-09T08:16:35.212Z,2.10
2023-08-09T08:19:02.379Z,2.40
2023-08-09T08:21:29.365Z,2.50
2023-08-09T08:23:57.188Z,3.00
2023-08-09T08:26:25.671Z,2.30
2023-08-09T08:28:52.322Z,2.50
2023-08-09T08:31:22.975Z,1.70
2023-08-09T08:33:53.059Z,1.80
2023-08-09T08:36:29.966Z,1.90
2023-08-09T08:38:58.189Z,1.70
2023-08-09T08:41:24.869Z,2.10
2023-08-09T08:43:51.814Z,2.70
2023-08-09T08:46:18.421Z,1.60
2023-08-09T08:48:47.425Z,2.40
2023-08-09T08:51:14.132Z,1.80
2023-08-09T08:53:41.640Z,3.00
2023-08-09T08:56:08.309Z,2.20
2023-08-09T08:58:34.965Z,2.60
2023-08-09T09:01:01.549Z,2.30
2023-08-09T09:03:28.353Z,2.30
2023-08-09T09:05:55.066Z,2.80
2023-08-09T09:08:23.638Z,2.40
2023-08-09T09:10:54.567Z,2.00
2023-08-09T09:13:27.999Z,2.00
2023-08-09T09:15:54.933Z,1.50
2023-08-09T09:18:22.209Z,2.10
2023-08-09T09:20:49.316Z,2.00
2023-08-09T09:23:29.081Z,2.00
2023-08-09T09:26:07.194Z,1.90
2023-08-09T09:28:42.031Z,1.80
2023-08-09T09:31:13.085Z,1.60
2023-08-09T09:33:46.660Z,2.10
2023-08-09T09:36:14.426Z,1.90
2023-08-09T09:38:42.239Z,2.10
2023-08-09T09:41:10.488Z,1.90
2023-08-09T09:43:42.131Z,1.70
2023-08-09T09:46:35.402Z,1.90
2023-08-09T09:49:05.943Z,2.20
2023-08-09T09:51:33.995Z,1.60
2023-08-09T09:54:00.562Z,1.80
2023-08-09T09:56:27.449Z,2.00
2023-08-09T09:58:54.370Z,2.00
2023-08-09T10:01:23.414Z,2.50
2023-08-09T10:03:53.886Z,1.60
2023-08-09T10:06:27.382Z,1.60
2023-08-09T10:08:54.216Z,2.10
2023-08-09T10:11:20.996Z,2.00
2023-08-09T10:13:47.710Z,1.90
2023-08-09T10:16:14.369Z,1.60
2023-08-09T10:18:43.440Z,1.60
2023-08-09T10:21:11.566Z,2.20
2023-08-09T10:23:38.316Z,2.30
2023-08-09T10:26:04.865Z,2.50
2023-08-09T10:28:47.793Z,2.90
2023-08-09T10:32:05.761Z,1.60
2023-08-09T10:34:44.359Z,1.90
2023-08-09T10:37:12.713Z,2.70
2023-08-09T10:39:40.477Z,1.70
2023-08-09T10:42:08.970Z,1.50
2023-08-09T10:44:36.845Z,2.00
2023-08-09T10:47:04.991Z,1.80
2023-08-09T10:49:44.145Z,1.70
2023-08-09T10:52:20.140Z,2.00
2023-08-09T10:55:10.505Z,1.70
2023-08-09T10:57:43.923Z,2.10
2023-08-09T11:00:14.821Z,1.70
2023-08-09T11:02:48.959Z,2.00
2023-08-09T11:05:16.235Z,1.60
2023-08-09T11:07:54.529Z,1.60
2023-08-09T11:10:34.379Z,2.30
2023-08-09T11:13:09.131Z,1.60
2023-08-09T11:15:36.758Z,1.70
2023-08-09T11:18:03.634Z,2.40
2023-08-09T11:20:30.407Z,1.60
2023-08-09T11:22:58.564Z,2.20
2023-08-09T11:25:26.093Z,1.50
2023-08-09T11:27:53.622Z,1.50
2023-08-09T11:30:20.882Z,1.50
2023-08-09T11:33:01.208Z,1.60
2023-08-09T11:35:31.893Z,1.70
2023-08-09T11:37:58.935Z,1.80
2023-08-09T11:40:26.287Z,1.60
2023-08-09T11:42:59.588Z,1.80
2023-08-09T11:45:26.350Z,1.70
2023-08-09T11:47:53.665Z,1.60
2023-08-09T11:50:22.568Z,2.60
2023-08-09T11:52:54.002Z,1.80
2023-08-09T11:55:21.977Z,2.10
2023-08-09T11:57:48.676Z,1.70
2023-08-09T12:00:17.226Z,1.70
2023-08-09T12:02:44.962Z,1.90
2023-08-09T12:05:13.270Z,1.90
2023-08-09T12:07:39.773Z,1.50
2023-08-09T12:10:10.778Z,1.90
2023-08-09T12:12:38.934Z,2.80
2023-08-09T12:15:07.799Z,2.10
2023-08-09T12:17:38.008Z,1.70
2023-08-09T12:20:07.294Z,1.40
2023-08-09T12:22:34.035Z,2.20
2023-08-09T12:25:04.502Z,2.60
2023-08-09T12:27:32.302Z,1.80
2023-08-09T12:29:58.944Z,1.70
2023-08-09T12:32:25.748Z,2.30
2023-08-09T12:34:56.279Z,2.00
2023-08-09T12:37:23.008Z,1.70
2023-08-09T12:39:49.521Z,2.40
2023-08-09T12:42:16.106Z,2.00
2023-08-09T12:44:43.601Z,1.70
2023-08-09T12:47:12.884Z,1.80
2023-08-09T12:49:41.294Z,1.70
2023-08-09T12:52:08.193Z,2.00
2023-08-09T12:54:34.814Z,1.80
2023-08-09T12:57:01.689Z,2.10
2023-08-09T12:59:28.749Z,1.40
2023-08-09T13:01:55.571Z,2.00
2023-08-09T13:04:24.556Z,1.90
2023-08-09T13:06:52.205Z,1.90
2023-08-09T13:09:18.961Z,1.70
2023-08-09T13:11:46.817Z,2.30
2023-08-09T13:14:13.545Z,1.60
2023-08-09T13:16:40.438Z,1.40
2023-08-09T13:19:07.183Z,1.50
2023-08-09T13:21:33.833Z,1.40
2023-08-09T13:24:03.948Z,2.00
2023-08-09T13:26:31.043Z,2.00
2023-08-09T13:28:57.936Z,1.50
2023-08-09T13:31:24.927Z,1.80
2023-08-09T13:33:51.764Z,1.70
2023-08-09T13:36:18.445Z,1.50
2023-08-09T13:38:45.041Z,1.20
2023-08-09T13:41:11.667Z,1.90
2023-08-09T13:43:38.216Z,1.50
2023-08-09T13:46:05.917Z,1.20
2023-08-09T13:48:37.217Z,1.60
2023-08-09T13:51:09.420Z,1.50
2023-08-09T13:53:36.127Z,2.10
2023-08-09T13:56:03.517Z,1.80
2023-08-09T13:58:30.631Z,1.10
2023-08-09T14:00:57.899Z,1.40
2023-08-09T14:03:27.200Z,1.20
2023-08-09T14:05:57.927Z,1.40
2023-08-09T14:08:24.824Z,1.50
2023-08-09T14:10:51.470Z,1.50
2023-08-09T14:13:55.355Z,1.80
2023-08-09T14:16:30.241Z,2.10
2023-08-09T14:19:00.010Z,1.50
2023-08-09T14:21:26.634Z,1.40
2023-08-09T14:23:53.228Z,1.60
2023-08-09T14:26:22.894Z,2.20
2023-08-09T14:28:49.371Z,1.50
2023-08-09T14:31:15.979Z,1.60
2023-08-09T14:33:42.497Z,1.60
2023-08-09T14:36:09.043Z,1.90
2023-08-09T14:38:35.728Z,1.60
2023-08-09T14:43:34.530Z,1.30
2023-08-09T14:46:01.158Z,1.70
2023-08-09T14:48:28.464Z,1.20
2023-08-09T14:50:55.069Z,1.20
2023-08-09T14:53:21.594Z,1.50
2023-08-09T14:55:48.573Z,6.70
2023-08-09T14:58:16.571Z,1.80
2023-08-09T15:00:43.394Z,1.70
2023-08-09T15:03:10.683Z,1.30
2023-08-09T15:05:37.303Z,1.00
2023-08-09T15:08:04.310Z,1.80
2023-08-09T15:10:33.863Z,1.10
2023-08-09T15:13:02.310Z,1.30
2023-08-09T15:15:29.744Z,1.40
2023-08-09T15:17:57.592Z,1.40
2023-08-09T15:20:26.344Z,2.00
2023-08-09T15:22:53.770Z,1.40
2023-08-09T15:25:22.044Z,1.70
2023-08-09T15:27:50.328Z,1.80
2023-08-09T15:30:19.443Z,3.50
2023-08-09T15:32:47.809Z,3.10
2023-08-09T15:35:14.791Z,3.20
2023-08-09T15:37:42.459Z,3.30
2023-08-09T15:40:09.718Z,2.90
2023-08-09T15:42:36.636Z,4.50
2023-08-09T15:45:04.395Z,1.50
2023-08-09T15:47:33.466Z,2.40
2023-08-09T15:50:00.243Z,1.60
2023-08-09T15:52:26.827Z,1.30
2023-08-09T15:54:53.383Z,1.10
2023-08-09T15:57:19.944Z,1.40
2023-08-09T15:59:46.648Z,1.80
2023-08-09T16:05:06.061Z,1.50
2023-08-09T16:07:33.280Z,1.30
2023-08-09T16:10:00.140Z,1.80
2023-08-09T16:12:26.825Z,1.40
2023-08-09T16:14:53.669Z,1.50
2023-08-09T16:17:20.471Z,1.30
2023-08-09T16:19:47.118Z,1.70
2023-08-09T16:22:13.602Z,2.40
2023-08-09T16:24:40.264Z,1.40
2023-08-09T16:27:07.204Z,1.60
2023-08-09T16:29:34.041Z,1.20
2023-08-09T16:32:00.720Z,1.80
2023-08-09T16:34:27.726Z,1.50
2023-08-09T16:36:54.218Z,1.30
2023-08-09T16:39:20.853Z,1.40
2023-08-09T16:41:47.765Z,1.40
2023-08-09T16:44:14.881Z,1.60
2023-08-09T16:46:43.558Z,1.70
2023-08-09T16:49:10.573Z,1.50
2023-08-09T16:51:37.203Z,1.30
2023-08-09T16:54:06.489Z,1.20
2023-08-09T16:56:34.024Z,1.30
2023-08-09T16:59:01.855Z,1.30
2023-08-09T17:01:28.672Z,1.20
2023-08-09T17:03:55.306Z,1.50
2023-08-09T17:06:22.858Z,1.50
2023-08-09T17:08:49.534Z,1.50
2023-08-09T17:11:16.055Z,1.70
2023-08-09T17:13:42.570Z,1.60
2023-08-09T17:16:09.156Z,1.50
2023-08-09T17:18:35.814Z,1.80
2023-08-09T17:21:04.185Z,1.70
2023-08-09T17:23:30.903Z,1.70
2023-08-09T17:25:57.417Z,2.00
2023-08-09T17:28:24.141Z,2.00
2023-08-09T17:30:51.013Z,1.80
2023-08-09T17:33:17.669Z,1.50
2023-08-09T17:35:45.390Z,1.70
2023-08-09T17:38:11.940Z,2.40
2023-08-09T17:40:38.836Z,2.30
2023-08-09T17:43:05.356Z,1.80
2023-08-09T17:45:31.994Z,2.00
2023-08-09T17:47:58.770Z,1.80
2023-08-09T17:50:25.621Z,2.30
2023-08-09T17:52:52.148Z,2.30
2023-08-09T17:55:18.696Z,3.50
2023-08-09T17:57:45.438Z,2.90
2023-08-09T18:00:20.590Z,2.10
2023-08-09T18:02:48.054Z,2.20
2023-08-09T18:05:14.818Z,2.90
2023-08-09T18:07:42.389Z,6.50
2023-08-09T18:10:11.357Z,9.60
2023-08-09T18:12:38.910Z,9.00
2023-08-09T18:15:05.965Z,5.10
2023-08-09T18:17:35.993Z,4.30
2023-08-09T18:20:09.082Z,5.30
2023-08-09T18:22:35.662Z,4.80
2023-08-09T18:25:05.080Z,6.00
2023-08-09T18:27:33.165Z,5.20
2023-08-09T18:29:59.779Z,4.90
2023-08-09T18:32:30.208Z,4.80
2023-08-09T18:37:43.342Z,5.20
2023-08-09T18:40:10.536Z,5.50
2023-08-09T18:42:38.938Z,5.90
2023-08-09T18:45:07.431Z,6.30
2023-08-09T18:47:34.140Z,6.60
2023-08-09T18:50:04.093Z,6.10
2023-08-09T18:52:31.112Z,5.30
2023-08-09T18:54:57.982Z,5.30
2023-08-09T18:57:24.860Z,7.90
2023-08-09T18:59:52.907Z,6.90
2023-08-09T19:02:19.775Z,7.10
2023-08-09T19:04:46.535Z,5.80
2023-08-09T19:07:13.217Z,7.00
2023-08-09T19:09:39.865Z,5.60
2023-08-09T19:12:06.689Z,5.40
2023-08-09T19:14:33.357Z,7.30
2023-08-09T19:16:59.840Z,6.10
2023-08-09T19:19:26.431Z,5.60
2023-08-09T19:21:53.397Z,5.70
2023-08-09T19:24:20.066Z,5.80
2023-08-09T19:26:46.872Z,5.40
2023-08-09T19:29:13.681Z,5.70
2023-08-09T19:31:40.802Z,5.40
2023-08-09T19:34:07.941Z,5.50
2023-08-09T19:36:34.711Z,5.00
2023-08-09T19:39:01.504Z,5.60
2023-08-09T19:41:28.626Z,4.50
2023-08-09T19:43:56.778Z,4.90
2023-08-09T19:46:24.675Z,5.00
2023-08-09T19:48:52.204Z,3.90
2023-08-09T19:51:21.903Z,4.00
2023-08-09T19:53:48.698Z,4.60
2023-08-09T19:56:15.597Z,4.50
2023-08-09T19:58:42.225Z,5.30
2023-08-09T20:01:22.663Z,4.90
2023-08-09T20:03:49.412Z,4.60
2023-08-09T20:06:20.620Z,4.60
2023-08-09T20:08:47.325Z,4.00
2023-08-09T20:11:14.225Z,3.80
2023-08-09T20:13:41.013Z,3.80
2023-08-09T20:16:11.175Z,5.00
2023-08-09T20:18:37.895Z,4.00
2023-08-09T20:21:07.005Z,3.80
2023-08-09T20:23:33.748Z,5.20
2023-08-09T20:26:01.242Z,5.60
2023-08-09T20:28:28.958Z,5.00
2023-08-09T20:30:55.608Z,5.40
2023-08-09T20:33:22.317Z,5.10
2023-08-09T20:35:49.570Z,5.50
2023-08-09T20:38:16.190Z,5.60
2023-08-09T20:40:42.811Z,6.20
2023-08-09T20:43:09.266Z,4.70
2023-08-09T20:45:36.006Z,5.10
2023-08-09T20:48:06.224Z,5.80
2023-08-09T20:52:59.530Z,4.70
2023-08-09T20:55:26.137Z,6.20
2023-08-09T20:57:52.647Z,5.00
2023-08-09T21:00:19.575Z,4.80
2023-08-09T21:02:46.206Z,4.10
2023-08-09T21:05:12.932Z,4.80
2023-08-09T21:07:40.244Z,5.60
2023-08-09T21:10:07.472Z,5.60
2023-08-09T21:12:38.135Z,5.70
2023-08-09T21:15:06.057Z,4.90
2023-08-09T21:17:34.692Z,7.70
2023-08-09T21:20:01.519Z,6.00
2023-08-09T21:22:28.237Z,5.20
2023-08-09T21:27:24.916Z,5.40
2023-08-09T21:29:51.587Z,5.60
2023-08-09T21:32:18.181Z,5.40
2023-08-09T21:34:44.697Z,5.50
2023-08-09T21:37:11.313Z,4.90
2023-08-09T21:39:37.923Z,5.20
2023-08-09T21:42:04.807Z,4.80
2023-08-09T21:44:31.884Z,5.10
2023-08-09T21:46:58.509Z,5.10
2023-08-09T21:49:25.181Z,5.00
2023-08-09T21:51:52.227Z,4.80
2023-08-09T21:54:18.939Z,5.50
2023-08-09T21:56:45.719Z,4.80
2023-08-09T21:59:12.209Z,4.30
2023-08-09T22:01:39.668Z,5.50
2023-08-09T22:04:06.586Z,5.50
2023-08-09T22:06:33.174Z,5.20
2023-08-09T22:08:59.904Z,5.60
2023-08-09T22:11:26.663Z,5.70
2023-08-09T22:13:53.670Z,5.80
2023-08-09T22:16:20.638Z,6.20
2023-08-09T22:18:47.410Z,6.30
2023-08-09T22:21:13.963Z,5.80
2023-08-09T22:23:40.855Z,5.70
2023-08-09T22:26:07.397Z,6.20
2023-08-09T22:28:34.097Z,6.60
2023-08-09T22:31:00.720Z,6.30
2023-08-09T22:33:27.340Z,6.20
2023-08-09T22:35:54.057Z,6.10
2023-08-09T22:38:21.185Z,5.00
2023-08-09T22:40:47.812Z,6.00
2023-08-09T22:43:14.627Z,5.70
2023-08-09T22:45:41.563Z,6.20
2023-08-09T22:48:08.443Z,5.50
2023-08-09T22:50:35.520Z,7.40
2023-08-09T22:53:02.438Z,5.90
2023-08-09T22:55:29.298Z,5.80
2023-08-09T22:57:56.044Z,5.60
2023-08-09T23:00:26.199Z,5.40
2023-08-09T23:02:52.923Z,5.10
2023-08-09T23:05:20.466Z,5.80
2023-08-09T23:07:47.028Z,6.30
2023-08-09T23:10:13.747Z,5.50
2023-08-09T23:12:40.364Z,6.20
2023-08-09T23:15:08.150Z,5.30
2023-08-09T23:17:34.906Z,5.70
2023-08-09T23:20:01.491Z,6.40
2023-08-09T23:22:28.303Z,5.10
2023-08-09T23:24:55.268Z,5.30
2023-08-09T23:27:23.590Z,4.80
2023-08-09T23:29:50.165Z,5.20
2023-08-09T23:32:17.096Z,6.30
2023-08-09T23:34:43.757Z,6.30
2023-08-09T23:37:11.063Z,5.40
2023-08-09T23:39:37.666Z,6.70
2023-08-09T23:42:06.930Z,5.90
2023-08-09T23:44:35.694Z,5.20
2023-08-09T23:47:02.648Z,5.90
2023-08-09T23:49:29.502Z,5.20
2023-08-09T23:51:56.043Z,5.50
2023-08-09T23:54:22.577Z,6.10
2023-08-09T23:56:49.173Z,5.80
2023-08-09T23:59:15.938Z,5.90
